createdAt,value
2022-08-09T00:02:03.376Z,99.90
2022-08-09T00:05:03.038Z,99.90
2022-08-09T00:08:00.041Z,99.90
2022-08-09T00:10:51.257Z,99.90
2022-08-09T00:13:33.172Z,99.90
2022-08-09T00:16:36.816Z,99.90
2022-08-09T00:19:20.099Z,99.90
2022-08-09T00:22:08.315Z,99.90
2022-08-09T00:24:53.090Z,99.90
2022-08-09T00:27:43.445Z,99.90
2022-08-09T00:30:37.081Z,99.90
2022-08-09T00:33:49.021Z,99.90
2022-08-09T00:36:35.094Z,99.90
2022-08-09T00:40:13.159Z,99.90
2022-08-09T00:44:11.526Z,99.90
2022-08-09T00:45:50.599Z,99.90
2022-08-09T00:48:36.095Z,99.90
2022-08-09T00:51:33.944Z,99.90
2022-08-09T00:54:31.357Z,99.90
2022-08-09T00:57:24.743Z,99.90
2022-08-09T01:00:30.130Z,99.90
2022-08-09T01:03:31.097Z,99.90
2022-08-09T01:06:18.580Z,99.90
2022-08-09T01:09:16.142Z,99.90
2022-08-09T01:12:04.284Z,99.90
2022-08-09T01:15:10.113Z,99.90
2022-08-09T01:18:03.333Z,99.90
2022-08-09T01:21:07.185Z,99.90
2022-08-09T01:24:06.311Z,99.90
2022-08-09T01:27:17.811Z,99.90
2022-08-09T01:30:33.683Z,99.90
2022-08-09T01:33:19.363Z,99.90
2022-08-09T01:36:18.129Z,99.90
2022-08-09T01:39:09.312Z,99.90
2022-08-09T01:42:11.241Z,99.90
2022-08-09T01:44:55.925Z,99.90
2022-08-09T01:47:45.125Z,99.90
2022-08-09T01:50:48.202Z,99.90
2022-08-09T01:53:41.387Z,99.90
2022-08-09T01:56:23.326Z,99.90
2022-08-09T01:59:17.125Z,99.90
2022-08-09T02:02:10.244Z,99.90
2022-08-09T02:04:53.173Z,99.90
2022-08-09T02:08:38.808Z,99.90
2022-08-09T02:10:55.372Z,99.90
2022-08-09T02:13:40.351Z,99.90
2022-08-09T02:16:35.257Z,99.90
2022-08-09T02:19:39.183Z,99.90
2022-08-09T02:22:39.583Z,99.90
2022-08-09T02:25:33.140Z,99.90
2022-08-09T02:28:37.129Z,99.90
2022-08-09T02:31:22.298Z,99.90
2022-08-09T02:34:40.023Z,99.90
2022-08-09T02:37:31.848Z,99.90
2022-08-09T02:40:30.375Z,99.90
2022-08-09T02:43:16.374Z,99.90
2022-08-09T02:46:07.249Z,99.90
2022-08-09T02:48:57.323Z,99.90
2022-08-09T02:51:56.206Z,99.90
2022-08-09T02:54:55.051Z,99.90
2022-08-09T02:57:40.433Z,99.90
2022-08-09T03:00:58.408Z,99.90
2022-08-09T03:04:18.133Z,99.90
2022-08-09T03:06:56.290Z,99.90
2022-08-09T03:09:53.937Z,99.90
2022-08-09T03:12:49.463Z,99.90
2022-08-09T03:16:06.090Z,99.90
2022-08-09T03:18:56.384Z,99.90
2022-08-09T03:21:44.169Z,99.90
2022-08-09T03:24:42.754Z,99.90
2022-08-09T03:27:44.684Z,99.90
2022-08-09T03:30:36.674Z,99.90
2022-08-09T03:33:19.592Z,99.90
2022-08-09T03:36:12.303Z,99.90
2022-08-09T03:39:02.269Z,99.90
2022-08-09T03:41:50.407Z,99.90
2022-08-09T03:45:01.159Z,99.90
2022-08-09T03:47:51.328Z,99.90
2022-08-09T03:50:41.177Z,99.90
2022-08-09T03:53:32.328Z,99.90
2022-08-09T03:56:19.174Z,99.90
2022-08-09T03:59:07.411Z,99.90
2022-08-09T04:01:54.191Z,99.90
2022-08-09T04:04:45.562Z,99.90
2022-08-09T04:07:33.754Z,99.90
2022-08-09T04:10:36.309Z,99.90
2022-08-09T04:13:26.447Z,99.90
2022-08-09T04:16:26.392Z,99.90
2022-08-09T04:19:42.621Z,99.90
2022-08-09T04:22:31.876Z,99.90
2022-08-09T04:25:22.192Z,99.90
2022-08-09T04:28:10.398Z,99.90
2022-08-09T04:31:00.200Z,99.90
2022-08-09T04:33:57.022Z,99.90
2022-08-09T04:36:44.949Z,99.90
2022-08-09T04:39:40.728Z,99.90
2022-08-09T04:42:22.262Z,99.90
2022-08-09T04:45:11.341Z,99.90
2022-08-09T04:48:01.144Z,99.90
2022-08-09T04:50:59.264Z,99.90
2022-08-09T04:53:54.332Z,99.90
2022-08-09T04:56:48.433Z,99.90
2022-08-09T04:59:36.206Z,99.90
2022-08-09T05:02:31.425Z,99.90
2022-08-09T05:05:31.325Z,99.90
2022-08-09T05:08:15.146Z,99.90
2022-08-09T05:11:10.264Z,99.90
2022-08-09T05:14:01.433Z,99.90
2022-08-09T05:16:59.383Z,99.90
2022-08-09T05:19:47.424Z,99.90
2022-08-09T05:23:53.965Z,99.90
2022-08-09T05:25:45.506Z,99.90
2022-08-09T05:28:39.211Z,99.90
2022-08-09T05:31:46.520Z,99.90
2022-08-09T05:34:37.292Z,99.90
2022-08-09T05:37:30.348Z,99.90
2022-08-09T05:40:27.254Z,99.90
2022-08-09T05:43:15.222Z,99.90
2022-08-09T05:45:58.494Z,99.90
2022-08-09T05:48:58.832Z,99.90
2022-08-09T05:51:54.274Z,99.90
2022-08-09T05:54:49.365Z,99.90
2022-08-09T05:57:55.153Z,99.90
2022-08-09T06:00:46.242Z,99.90
2022-08-09T06:03:34.951Z,99.90
2022-08-09T06:06:27.289Z,99.90
2022-08-09T06:09:40.509Z,99.90
2022-08-09T06:12:17.230Z,99.90
2022-08-09T06:15:09.809Z,99.90
2022-08-09T06:17:52.247Z,99.90
2022-08-09T06:20:41.844Z,99.90
2022-08-09T06:23:57.250Z,99.90
2022-08-09T06:26:47.529Z,99.90
2022-08-09T06:29:48.330Z,99.90
2022-08-09T06:32:53.563Z,99.90
2022-08-09T06:35:57.748Z,99.90
2022-08-09T06:38:50.189Z,99.90
2022-08-09T06:41:55.840Z,99.90
2022-08-09T06:44:40.439Z,99.90
2022-08-09T06:47:22.323Z,99.90
2022-08-09T06:50:16.740Z,99.90
2022-08-09T06:53:15.253Z,99.90
2022-08-09T06:55:59.203Z,99.90
2022-08-09T07:00:50.098Z,99.90
2022-08-09T07:02:03.612Z,99.90
2022-08-09T07:04:53.324Z,99.90
2022-08-09T07:07:59.593Z,99.90
2022-08-09T07:10:56.280Z,99.90
2022-08-09T07:14:05.240Z,99.90
2022-08-09T07:16:55.362Z,99.90
2022-08-09T07:19:55.229Z,99.90
2022-08-09T07:22:47.525Z,99.90
2022-08-09T07:25:38.906Z,99.90
2022-08-09T07:28:37.298Z,99.90
2022-08-09T07:31:48.171Z,99.90
2022-08-09T07:34:37.244Z,99.90
2022-08-09T07:37:26.443Z,99.90
2022-08-09T07:40:17.597Z,99.90
2022-08-09T07:43:16.517Z,99.90
2022-08-09T07:46:05.301Z,99.90
2022-08-09T07:48:59.227Z,99.90
2022-08-09T07:52:05.942Z,99.90
2022-08-09T07:54:51.534Z,99.90
2022-08-09T07:57:46.878Z,99.90
2022-08-09T08:00:36.654Z,99.90
2022-08-09T08:03:38.282Z,99.90
2022-08-09T08:06:32.606Z,99.90
2022-08-09T08:09:35.578Z,99.90
2022-08-09T08:12:31.091Z,99.90
2022-08-09T08:15:23.163Z,99.90
2022-08-09T08:18:14.422Z,99.90
2022-08-09T08:21:03.343Z,99.90
2022-08-09T08:23:55.690Z,99.90
2022-08-09T08:26:54.870Z,99.90
2022-08-09T08:29:48.683Z,99.90
2022-08-09T08:32:32.299Z,99.90
2022-08-09T08:35:22.580Z,99.90
2022-08-09T08:38:11.620Z,99.90
2022-08-09T08:41:05.598Z,99.90
2022-08-09T08:43:59.312Z,99.90
2022-08-09T08:47:03.398Z,99.90
2022-08-09T08:50:06.292Z,99.90
2022-08-09T08:53:03.995Z,99.90
2022-08-09T08:56:00.503Z,99.90
2022-08-09T08:58:50.526Z,99.90
2022-08-09T09:01:35.439Z,99.90
2022-08-09T09:04:52.509Z,99.90
2022-08-09T09:07:42.433Z,99.90
2022-08-09T09:10:33.463Z,99.90
2022-08-09T09:13:15.375Z,99.90
2022-08-09T09:16:07.041Z,99.90
2022-08-09T09:19:10.733Z,99.90
2022-08-09T09:22:07.788Z,99.90
2022-08-09T09:26:04.669Z,99.90
2022-08-09T09:28:11.236Z,99.90
2022-08-09T09:31:17.227Z,99.90
2022-08-09T09:34:29.041Z,99.90
2022-08-09T09:37:16.443Z,99.90
2022-08-09T09:40:11.856Z,99.90
2022-08-09T09:43:04.554Z,99.90
2022-08-09T09:49:15.470Z,99.90
2022-08-09T09:52:36.693Z,99.90
2022-08-09T09:55:27.978Z,99.90
2022-08-09T09:58:19.085Z,99.90
2022-08-09T10:01:36.774Z,99.90
2022-08-09T10:04:22.805Z,99.90
2022-08-09T10:07:33.685Z,99.90
2022-08-09T10:10:22.408Z,99.90
2022-08-09T10:13:42.750Z,99.90
2022-08-09T10:16:57.953Z,99.90
2022-08-09T10:19:42.470Z,99.90
2022-08-09T10:22:35.461Z,99.90
2022-08-09T10:25:25.568Z,99.90
2022-08-09T10:28:16.387Z,99.90
2022-08-09T10:34:32.526Z,99.90
2022-08-09T10:37:21.624Z,99.90
2022-08-09T10:40:12.117Z,99.90
2022-08-09T10:43:21.592Z,99.90
2022-08-09T10:46:03.352Z,99.90
2022-08-09T10:48:59.506Z,99.90
2022-08-09T10:51:57.366Z,99.90
2022-08-09T10:54:40.575Z,99.90
2022-08-09T10:57:42.375Z,99.90
2022-08-09T11:03:02.713Z,99.90
2022-08-09T11:04:32.510Z,99.90
2022-08-09T11:07:57.495Z,99.90
2022-08-09T11:11:14.447Z,99.90
2022-08-09T11:14:37.995Z,99.90
2022-08-09T11:18:03.701Z,99.90
2022-08-09T11:20:53.540Z,99.90
2022-08-09T11:23:45.238Z,99.90
2022-08-09T11:26:54.607Z,99.90
2022-08-09T11:30:32.916Z,99.90
2022-08-09T11:33:32.539Z,99.90
2022-08-09T11:36:30.494Z,99.90
2022-08-09T11:39:24.186Z,99.90
2022-08-09T11:42:06.360Z,99.90
2022-08-09T11:44:57.294Z,99.90
2022-08-09T11:47:52.358Z,99.90
2022-08-09T11:52:48.641Z,99.90
2022-08-09T11:54:34.869Z,99.70
2022-08-09T11:57:56.849Z,98.40
2022-08-09T12:00:48.372Z,98.70
2022-08-09T12:03:56.911Z,98.70
2022-08-09T12:06:40.372Z,98.20
2022-08-09T12:09:50.345Z,98.20
2022-08-09T12:12:33.382Z,98.30
2022-08-09T12:15:49.743Z,98.30
2022-08-09T12:18:39.375Z,97.90
2022-08-09T12:21:38.767Z,98.00
2022-08-09T12:24:33.446Z,97.70
2022-08-09T12:28:59.533Z,97.20
2022-08-09T12:30:45.427Z,96.70
2022-08-09T12:33:59.143Z,97.40
2022-08-09T12:36:38.488Z,97.10
2022-08-09T12:39:29.780Z,97.50
2022-08-09T12:42:16.235Z,96.70
2022-08-09T12:45:32.725Z,96.50
2022-08-09T12:48:20.453Z,96.10
2022-08-09T12:51:30.494Z,96.70
2022-08-09T12:54:31.468Z,96.60
2022-08-09T12:57:19.768Z,96.60
2022-08-09T13:00:07.657Z,95.60
2022-08-09T13:03:03.701Z,95.80
2022-08-09T13:06:14.421Z,95.40
2022-08-09T13:09:08.706Z,94.60
2022-08-09T13:12:01.834Z,95.00
2022-08-09T13:14:54.027Z,95.60
2022-08-09T13:18:02.604Z,95.30
2022-08-09T13:21:04.250Z,95.10
2022-08-09T13:24:42.618Z,94.70
2022-08-09T13:27:08.485Z,95.10
2022-08-09T13:30:51.141Z,93.70
2022-08-09T13:33:11.496Z,93.30
2022-08-09T13:36:37.999Z,92.80
2022-08-09T13:41:17.785Z,92.50
2022-08-09T13:42:19.335Z,92.00
2022-08-09T13:45:12.471Z,91.70
2022-08-09T13:48:00.625Z,92.40
2022-08-09T13:50:50.467Z,92.30
2022-08-09T13:53:47.449Z,92.20
2022-08-09T13:56:36.492Z,93.00
2022-08-09T13:59:25.386Z,93.00
2022-08-09T14:02:13.659Z,92.70
2022-08-09T14:05:06.693Z,92.30
2022-08-09T14:08:01.231Z,91.50
2022-08-09T14:10:50.656Z,91.70
2022-08-09T14:14:22.002Z,90.90
2022-08-09T14:16:55.679Z,91.20
2022-08-09T14:19:44.576Z,91.00
2022-08-09T14:22:33.058Z,90.90
2022-08-09T14:25:22.481Z,91.00
2022-08-09T14:28:12.679Z,90.10
2022-08-09T14:31:01.450Z,88.60
2022-08-09T14:33:52.076Z,88.90
2022-08-09T14:36:39.814Z,88.80
2022-08-09T14:39:40.506Z,87.90
2022-08-09T14:42:32.460Z,87.50
2022-08-09T14:46:55.885Z,87.80
2022-08-09T14:48:31.514Z,88.80
2022-08-09T14:51:20.709Z,87.50
2022-08-09T14:54:22.412Z,87.80
2022-08-09T14:57:15.640Z,85.60
2022-08-09T15:00:05.482Z,85.40
2022-08-09T15:02:51.787Z,84.70
2022-08-09T15:05:52.508Z,85.20
2022-08-09T15:08:43.770Z,84.60
2022-08-09T15:11:38.493Z,84.10
2022-08-09T15:14:26.687Z,83.80
2022-08-09T15:17:16.472Z,83.80
2022-08-09T15:20:15.139Z,83.20
2022-08-09T15:24:02.152Z,82.70
2022-08-09T15:26:19.287Z,80.70
2022-08-09T15:30:58.542Z,79.50
2022-08-09T15:32:30.357Z,77.40
2022-08-09T15:35:40.175Z,79.40
2022-08-09T15:38:22.497Z,79.20
2022-08-09T15:41:10.827Z,79.30
2022-08-09T15:44:03.784Z,79.50
2022-08-09T15:46:51.705Z,79.70
2022-08-09T15:49:33.485Z,78.70
2022-08-09T15:52:30.540Z,78.70
2022-08-09T15:55:27.504Z,78.40
2022-08-09T15:58:26.395Z,77.60
2022-08-09T16:01:15.582Z,78.40
2022-08-09T16:04:03.618Z,77.90
2022-08-09T16:06:51.582Z,77.80
2022-08-09T16:10:04.025Z,78.10
2022-08-09T16:12:50.111Z,78.00
2022-08-09T16:16:11.470Z,76.90
2022-08-09T16:18:44.957Z,74.90
2022-08-09T16:21:34.875Z,73.40
2022-08-09T16:24:30.007Z,74.00
2022-08-09T16:27:23.699Z,74.20
2022-08-09T16:30:08.729Z,75.00
2022-08-09T16:33:16.509Z,74.90
2022-08-09T16:36:11.823Z,73.90
2022-08-09T16:38:57.577Z,73.40
2022-08-09T16:42:03.649Z,74.50
2022-08-09T16:44:47.592Z,74.80
2022-08-09T16:48:41.702Z,73.90
2022-08-09T16:50:59.314Z,74.00
2022-08-09T16:54:25.389Z,73.90
2022-08-09T16:57:02.692Z,74.00
2022-08-09T16:59:50.324Z,74.80
2022-08-09T17:02:47.651Z,74.40
2022-08-09T17:06:02.785Z,73.40
2022-08-09T17:08:59.921Z,72.70
2022-08-09T17:11:53.113Z,72.70
2022-08-09T17:14:36.612Z,72.50
2022-08-09T17:17:27.466Z,72.10
2022-08-09T17:20:32.281Z,72.30
2022-08-09T17:23:19.471Z,71.80
2022-08-09T17:26:08.505Z,71.50
2022-08-09T17:29:00.752Z,70.90
2022-08-09T17:31:49.552Z,71.10
2022-08-09T17:35:01.671Z,71.70
2022-08-09T17:38:02.593Z,72.30
2022-08-09T17:41:03.545Z,74.20
2022-08-09T17:44:42.428Z,74.80
2022-08-09T17:47:00.587Z,74.90
2022-08-09T17:49:54.679Z,75.10
2022-08-09T17:52:56.540Z,76.30
2022-08-09T17:55:59.671Z,75.70
2022-08-09T17:58:49.794Z,76.00
2022-08-09T18:02:03.854Z,76.80
2022-08-09T18:04:47.485Z,77.30
2022-08-09T18:07:37.630Z,78.00
2022-08-09T18:10:25.737Z,78.90
2022-08-09T18:13:39.132Z,78.70
2022-08-09T18:16:29.442Z,78.20
2022-08-09T18:21:01.751Z,78.30
2022-08-09T18:22:20.832Z,79.80
2022-08-09T18:25:03.653Z,79.10
2022-08-09T18:28:03.277Z,79.20
2022-08-09T18:30:55.672Z,79.20
2022-08-09T18:33:53.115Z,79.70
2022-08-09T18:36:42.646Z,80.50
2022-08-09T18:39:39.558Z,81.00
2022-08-09T18:42:30.613Z,81.10
2022-08-09T18:45:21.555Z,81.30
2022-08-09T18:48:21.559Z,81.70
2022-08-09T18:51:14.783Z,81.70
2022-08-09T18:54:16.592Z,82.10
2022-08-09T18:57:10.814Z,82.30
2022-08-09T18:59:57.488Z,82.60
2022-08-09T19:02:48.595Z,82.30
2022-08-09T19:06:02.213Z,82.30
2022-08-09T19:08:55.344Z,82.60
2022-08-09T19:11:45.055Z,83.30
2022-08-09T19:14:33.584Z,83.50
2022-08-09T19:17:19.130Z,84.20
2022-08-09T19:20:15.642Z,84.80
2022-08-09T19:23:05.564Z,85.10
2022-08-09T19:26:02.104Z,85.50
2022-08-09T19:28:48.902Z,86.00
2022-08-09T19:31:45.067Z,86.10
2022-08-09T19:34:27.598Z,86.30
2022-08-09T19:37:16.886Z,86.50
2022-08-09T19:40:04.305Z,86.90
2022-08-09T19:42:53.761Z,87.20
2022-08-09T19:45:42.599Z,87.30
2022-08-09T19:49:00.050Z,87.60
2022-08-09T19:51:39.692Z,88.40
2022-08-09T19:54:34.588Z,88.50
2022-08-09T19:57:32.616Z,88.70
2022-08-09T20:00:23.864Z,88.70
2022-08-09T20:04:17.016Z,89.20
2022-08-09T20:06:23.938Z,90.00
2022-08-09T20:09:44.926Z,90.50
2022-08-09T20:12:27.416Z,90.00
2022-08-09T20:16:37.289Z,90.60
2022-08-09T20:18:39.765Z,90.30
2022-08-09T20:21:56.237Z,90.30
2022-08-09T20:24:54.446Z,90.40
2022-08-09T20:27:39.727Z,90.60
2022-08-09T20:30:36.607Z,90.70
2022-08-09T20:33:25.609Z,90.80
2022-08-09T20:36:14.689Z,90.90
2022-08-09T20:39:18.732Z,91.00
2022-08-09T20:42:16.669Z,90.90
2022-08-09T20:46:00.651Z,91.10
2022-08-09T20:48:21.238Z,91.10
2022-08-09T20:51:19.443Z,91.10
2022-08-09T20:54:17.116Z,91.20
2022-08-09T20:57:12.653Z,91.40
2022-08-09T21:00:20.528Z,91.70
2022-08-09T21:03:07.674Z,91.90
2022-08-09T21:05:59.636Z,92.20
2022-08-09T21:08:41.634Z,92.30
2022-08-09T21:14:41.630Z,92.60
2022-08-09T21:18:23.906Z,92.50
2022-08-09T21:20:44.879Z,92.90
2022-08-09T21:23:51.377Z,93.10
2022-08-09T21:26:39.778Z,93.20
2022-08-09T21:29:23.723Z,93.20
2022-08-09T21:32:15.383Z,93.30
2022-08-09T21:35:01.681Z,93.50
2022-08-09T21:38:00.041Z,93.70
2022-08-09T21:40:50.661Z,93.90
2022-08-09T21:43:56.405Z,94.20
2022-08-09T21:46:45.685Z,94.40
2022-08-09T21:49:39.429Z,94.70
2022-08-09T21:52:38.731Z,94.90
2022-08-09T21:55:34.657Z,95.10
2022-08-09T21:58:29.267Z,95.20
2022-08-09T22:01:45.071Z,95.30
2022-08-09T22:04:21.519Z,95.60
2022-08-09T22:07:39.988Z,95.80
2022-08-09T22:11:50.228Z,96.20
2022-08-09T22:13:43.593Z,96.50
2022-08-09T22:16:37.107Z,97.00
2022-08-09T22:19:25.511Z,97.60
2022-08-09T22:22:26.869Z,98.40
2022-08-09T22:26:08.430Z,99.20
2022-08-09T22:28:29.629Z,99.90
2022-08-09T22:31:22.667Z,99.90
2022-08-09T22:34:20.459Z,99.90
2022-08-09T22:37:13.911Z,99.90
2022-08-09T22:40:01.808Z,99.90
2022-08-09T22:42:43.865Z,99.90
2022-08-09T22:48:14.555Z,99.90
2022-08-09T22:48:50.628Z,99.90
2022-08-09T22:51:49.293Z,99.90
2022-08-09T22:54:45.327Z,99.90
2022-08-09T22:57:44.469Z,99.90
2022-08-09T23:00:54.735Z,99.90
2022-08-09T23:04:03.974Z,99.90
2022-08-09T23:07:11.294Z,99.90
2022-08-09T23:09:55.514Z,99.90
2022-08-09T23:12:44.707Z,99.90
2022-08-09T23:15:40.666Z,99.90
2022-08-09T23:18:28.848Z,99.90
2022-08-09T23:21:23.784Z,99.90
2022-08-09T23:24:15.776Z,99.90
2022-08-09T23:26:56.969Z,99.90
2022-08-09T23:29:44.684Z,99.90
2022-08-09T23:32:32.867Z,99.90
2022-08-09T23:35:22.758Z,99.90
2022-08-09T23:38:10.838Z,99.90
2022-08-09T23:41:00.711Z,99.90
2022-08-09T23:43:48.837Z,99.90
2022-08-09T23:46:42.684Z,99.90
2022-08-09T23:49:25.063Z,99.90
2022-08-09T23:52:13.720Z,99.90
2022-08-09T23:55:10.780Z,99.90
2022-08-09T23:58:10.535Z,99.90
